sensor_id;sensor_type;location;lat;lon;timestamp;P1;durP1;ratioP1;P2;durP2;ratioP2
635;SDS011;302;50.206;8.196;2023-04-24T00:02:08;2.40;;;2.20;;
635;SDS011;302;50.206;8.196;2023-04-24T00:04:35;2.65;;;2.45;;
635;SDS011;302;50.206;8.196;2023-04-24T00:07:01;2.40;;;2.20;;
635;SDS011;302;50.206;8.196;2023-04-24T00:09:26;2.97;;;2.78;;
635;SDS011;302;50.206;8.196;2023-04-24T00:11:51;2.60;;;2.40;;
635;SDS011;302;50.206;8.196;2023-04-24T00:14:16;2.77;;;2.57;;
635;SDS011;302;50.206;8.196;2023-04-24T00:16:41;2.80;;;2.60;;
635;SDS011;302;50.206;8.196;2023-04-24T00:19:06;3.00;;;2.80;;
635;SDS011;302;50.206;8.196;2023-04-24T00:21:32;2.70;;;2.50;;
635;SDS011;302;50.206;8.196;2023-04-24T00:23:57;2.77;;;2.47;;
635;SDS011;302;50.206;8.196;2023-04-24T00:26:22;2.70;;;2.50;;
635;SDS011;302;50.206;8.196;2023-04-24T00:28:48;4.65;;;2.42;;
635;SDS011;302;50.206;8.196;2023-04-24T00:31:13;2.70;;;2.50;;
635;SDS011;302;50.206;8.196;2023-04-24T00:33:38;2.30;;;2.20;;
635;SDS011;302;50.206;8.196;2023-04-24T00:36:03;2.97;;;2.77;;
635;SDS011;302;50.206;8.196;2023-04-24T00:38:28;2.90;;;2.70;;
635;SDS011;302;50.206;8.196;2023-04-24T00:40:54;3.70;;;3.40;;
635;SDS011;302;50.206;8.196;2023-04-24T00:43:19;3.93;;;2.47;;
635;SDS011;302;50.206;8.196;2023-04-24T00:45:44;3.23;;;3.03;;
635;SDS011;302;50.206;8.196;2023-04-24T00:48:09;5.03;;;3.17;;
635;SDS011;302;50.206;8.196;2023-04-24T00:50:36;3.38;;;3.17;;
635;SDS011;302;50.206;8.196;2023-04-24T00:53:01;3.60;;;3.40;;
635;SDS011;302;50.206;8.196;2023-04-24T00:55:26;3.60;;;3.30;;
635;SDS011;302;50.206;8.196;2023-04-24T00:57:52;3.47;;;3.17;;
635;SDS011;302;50.206;8.196;2023-04-24T01:00:18;3.95;;;3.65;;
635;SDS011;302;50.206;8.196;2023-04-24T01:02:44;3.30;;;3.10;;
635;SDS011;302;50.206;8.196;2023-04-24T01:05:10;3.35;;;3.13;;
635;SDS011;302;50.206;8.196;2023-04-24T01:07:36;3.75;;;3.53;;
635;SDS011;302;50.206;8.196;2023-04-24T01:10:01;4.10;;;3.80;;
635;SDS011;302;50.206;8.196;2023-04-24T01:12:27;3.60;;;3.40;;
635;SDS011;302;50.206;8.196;2023-04-24T01:14:52;3.50;;;3.20;;
635;SDS011;302;50.206;8.196;2023-04-24T01:17:18;3.37;;;3.10;;
635;SDS011;302;50.206;8.196;2023-04-24T01:19:43;4.50;;;3.00;;
635;SDS011;302;50.206;8.196;2023-04-24T01:22:12;4.13;;;3.83;;
635;SDS011;302;50.206;8.196;2023-04-24T01:24:37;3.42;;;3.22;;
635;SDS011;302;50.206;8.196;2023-04-24T01:27:03;3.47;;;3.27;;
635;SDS011;302;50.206;8.196;2023-04-24T01:29:28;3.27;;;3.07;;
635;SDS011;302;50.206;8.196;2023-04-24T01:31:53;3.13;;;2.93;;
635;SDS011;302;50.206;8.196;2023-04-24T01:34:19;3.40;;;2.40;;
635;SDS011;302;50.206;8.196;2023-04-24T01:36:45;2.80;;;2.60;;
635;SDS011;302;50.206;8.196;2023-04-24T01:39:10;2.83;;;2.60;;
635;SDS011;302;50.206;8.196;2023-04-24T01:41:36;5.75;;;2.70;;
635;SDS011;302;50.206;8.196;2023-04-24T01:44:01;3.00;;;2.57;;
635;SDS011;302;50.206;8.196;2023-04-24T01:46:26;2.83;;;2.63;;
635;SDS011;302;50.206;8.196;2023-04-24T01:48:52;3.50;;;2.40;;
635;SDS011;302;50.206;8.196;2023-04-24T01:51:17;2.50;;;2.40;;
635;SDS011;302;50.206;8.196;2023-04-24T01:53:42;2.27;;;2.07;;
635;SDS011;302;50.206;8.196;2023-04-24T01:56:07;2.40;;;2.20;;
635;SDS011;302;50.206;8.196;2023-04-24T01:58:33;2.03;;;1.87;;
635;SDS011;302;50.206;8.196;2023-04-24T02:00:59;2.10;;;1.90;;
635;SDS011;302;50.206;8.196;2023-04-24T02:03:25;1.30;;;1.20;;
635;SDS011;302;50.206;8.196;2023-04-24T02:05:50;1.50;;;1.40;;
635;SDS011;302;50.206;8.196;2023-04-24T02:08:15;2.00;;;1.40;;
635;SDS011;302;50.206;8.196;2023-04-24T02:10:40;1.75;;;1.65;;
635;SDS011;302;50.206;8.196;2023-04-24T02:13:05;1.67;;;1.58;;
635;SDS011;302;50.206;8.196;2023-04-24T02:15:30;2.17;;;1.83;;
635;SDS011;302;50.206;8.196;2023-04-24T02:17:55;1.50;;;1.40;;
635;SDS011;302;50.206;8.196;2023-04-24T02:20:21;1.60;;;1.50;;
635;SDS011;302;50.206;8.196;2023-04-24T02:22:46;2.50;;;1.77;;
635;SDS011;302;50.206;8.196;2023-04-24T02:25:11;1.63;;;1.53;;
635;SDS011;302;50.206;8.196;2023-04-24T02:27:36;1.60;;;1.42;;
635;SDS011;302;50.206;8.196;2023-04-24T02:30:01;1.60;;;1.50;;
635;SDS011;302;50.206;8.196;2023-04-24T02:32:27;1.80;;;1.70;;
635;SDS011;302;50.206;8.196;2023-04-24T02:34:53;1.38;;;1.27;;
635;SDS011;302;50.206;8.196;2023-04-24T02:37:18;1.95;;;1.85;;
635;SDS011;302;50.206;8.196;2023-04-24T02:39:43;1.83;;;1.73;;
635;SDS011;302;50.206;8.196;2023-04-24T02:42:08;2.07;;;1.93;;
635;SDS011;302;50.206;8.196;2023-04-24T02:44:33;4.60;;;2.30;;
635;SDS011;302;50.206;8.196;2023-04-24T02:46:58;2.33;;;1.60;;
635;SDS011;302;50.206;8.196;2023-04-24T02:49:23;4.00;;;1.70;;
635;SDS011;302;50.206;8.196;2023-04-24T02:51:49;2.05;;;1.85;;
635;SDS011;302;50.206;8.196;2023-04-24T02:54:14;2.17;;;1.97;;
635;SDS011;302;50.206;8.196;2023-04-24T02:56:39;2.30;;;2.10;;
635;SDS011;302;50.206;8.196;2023-04-24T02:59:04;2.00;;;1.90;;
635;SDS011;302;50.206;8.196;2023-04-24T03:01:29;2.47;;;2.28;;
635;SDS011;302;50.206;8.196;2023-04-24T03:03:55;2.50;;;2.30;;
635;SDS011;302;50.206;8.196;2023-04-24T03:06:20;2.35;;;2.15;;
635;SDS011;302;50.206;8.196;2023-04-24T03:08:46;2.17;;;1.97;;
635;SDS011;302;50.206;8.196;2023-04-24T03:11:11;2.20;;;2.10;;
635;SDS011;302;50.206;8.196;2023-04-24T03:13:36;2.38;;;2.17;;
635;SDS011;302;50.206;8.196;2023-04-24T03:16:01;2.40;;;2.20;;
635;SDS011;302;50.206;8.196;2023-04-24T03:18:26;1.60;;;1.50;;
635;SDS011;302;50.206;8.196;2023-04-24T03:20:52;2.50;;;2.30;;
635;SDS011;302;50.206;8.196;2023-04-24T03:23:17;2.17;;;1.90;;
635;SDS011;302;50.206;8.196;2023-04-24T03:25:42;2.45;;;2.25;;
635;SDS011;302;50.206;8.196;2023-04-24T03:28:07;2.00;;;1.90;;
635;SDS011;302;50.206;8.196;2023-04-24T03:30:33;1.90;;;1.80;;
635;SDS011;302;50.206;8.196;2023-04-24T03:32:58;2.45;;;2.25;;
635;SDS011;302;50.206;8.196;2023-04-24T03:35:23;2.17;;;2.05;;
635;SDS011;302;50.206;8.196;2023-04-24T03:37:48;2.10;;;1.90;;
635;SDS011;302;50.206;8.196;2023-04-24T03:40:13;2.58;;;2.38;;
635;SDS011;302;50.206;8.196;2023-04-24T03:42:38;2.03;;;1.93;;
635;SDS011;302;50.206;8.196;2023-04-24T03:45:04;2.87;;;2.67;;
635;SDS011;302;50.206;8.196;2023-04-24T03:47:29;1.73;;;1.63;;
635;SDS011;302;50.206;8.196;2023-04-24T03:49:54;2.23;;;2.03;;
635;SDS011;302;50.206;8.196;2023-04-24T03:52:20;2.60;;;2.40;;
635;SDS011;302;50.206;8.196;2023-04-24T03:54:45;2.40;;;2.20;;
635;SDS011;302;50.206;8.196;2023-04-24T03:57:11;2.33;;;2.13;;
635;SDS011;302;50.206;8.196;2023-04-24T03:59:36;2.70;;;2.50;;
635;SDS011;302;50.206;8.196;2023-04-24T04:02:01;3.45;;;2.22;;
635;SDS011;302;50.206;8.196;2023-04-24T04:04:26;2.58;;;2.38;;
635;SDS011;302;50.206;8.196;2023-04-24T04:06:51;2.20;;;2.10;;
635;SDS011;302;50.206;8.196;2023-04-24T04:09:17;2.67;;;2.43;;
635;SDS011;302;50.206;8.196;2023-04-24T04:11:42;2.13;;;1.93;;
635;SDS011;302;50.206;8.196;2023-04-24T04:14:07;2.10;;;1.90;;
635;SDS011;302;50.206;8.196;2023-04-24T04:16:32;2.53;;;2.37;;
635;SDS011;302;50.206;8.196;2023-04-24T04:18:57;2.27;;;2.17;;
635;SDS011;302;50.206;8.196;2023-04-24T04:21:23;2.10;;;2.00;;
635;SDS011;302;50.206;8.196;2023-04-24T04:23:48;2.50;;;2.30;;
635;SDS011;302;50.206;8.196;2023-04-24T04:26:14;2.40;;;2.20;;
635;SDS011;302;50.206;8.196;2023-04-24T04:28:39;2.50;;;2.30;;
635;SDS011;302;50.206;8.196;2023-04-24T04:31:04;3.00;;;2.70;;
635;SDS011;302;50.206;8.196;2023-04-24T04:33:29;3.10;;;2.43;;
635;SDS011;302;50.206;8.196;2023-04-24T04:35:54;2.83;;;2.55;;
635;SDS011;302;50.206;8.196;2023-04-24T04:38:21;2.47;;;2.28;;
635;SDS011;302;50.206;8.196;2023-04-24T04:40:47;2.43;;;2.23;;
635;SDS011;302;50.206;8.196;2023-04-24T04:43:12;2.25;;;2.05;;
635;SDS011;302;50.206;8.196;2023-04-24T04:45:38;2.20;;;2.10;;
635;SDS011;302;50.206;8.196;2023-04-24T04:48:04;2.50;;;2.30;;
635;SDS011;302;50.206;8.196;2023-04-24T04:50:29;2.03;;;1.93;;
635;SDS011;302;50.206;8.196;2023-04-24T04:52:54;2.60;;;2.40;;
635;SDS011;302;50.206;8.196;2023-04-24T04:55:19;3.20;;;2.43;;
635;SDS011;302;50.206;8.196;2023-04-24T04:57:44;3.33;;;3.03;;
635;SDS011;302;50.206;8.196;2023-04-24T05:00:10;3.30;;;3.00;;
635;SDS011;302;50.206;8.196;2023-04-24T05:02:36;3.20;;;2.70;;
635;SDS011;302;50.206;8.196;2023-04-24T05:05:01;3.00;;;2.70;;
635;SDS011;302;50.206;8.196;2023-04-24T05:07:26;2.43;;;2.23;;
635;SDS011;302;50.206;8.196;2023-04-24T05:09:51;2.25;;;2.05;;
635;SDS011;302;50.206;8.196;2023-04-24T05:12:17;2.33;;;2.13;;
635;SDS011;302;50.206;8.196;2023-04-24T05:14:42;2.50;;;2.30;;
635;SDS011;302;50.206;8.196;2023-04-24T05:17:07;3.00;;;2.80;;
635;SDS011;302;50.206;8.196;2023-04-24T05:19:32;2.67;;;2.47;;
635;SDS011;302;50.206;8.196;2023-04-24T05:22:00;2.83;;;2.63;;
635;SDS011;302;50.206;8.196;2023-04-24T05:24:28;3.28;;;3.00;;
635;SDS011;302;50.206;8.196;2023-04-24T05:26:53;2.90;;;2.70;;
635;SDS011;302;50.206;8.196;2023-04-24T05:29:18;2.73;;;2.53;;
635;SDS011;302;50.206;8.196;2023-04-24T05:31:44;2.73;;;2.53;;
635;SDS011;302;50.206;8.196;2023-04-24T05:34:09;3.13;;;2.93;;
635;SDS011;302;50.206;8.196;2023-04-24T05:36:35;3.27;;;2.77;;
635;SDS011;302;50.206;8.196;2023-04-24T05:39:00;3.90;;;3.57;;
635;SDS011;302;50.206;8.196;2023-04-24T05:41:25;3.70;;;3.40;;
635;SDS011;302;50.206;8.196;2023-04-24T05:43:50;4.20;;;3.80;;
635;SDS011;302;50.206;8.196;2023-04-24T05:46:16;5.47;;;4.67;;
635;SDS011;302;50.206;8.196;2023-04-24T05:48:41;4.93;;;4.50;;
635;SDS011;302;50.206;8.196;2023-04-24T05:51:06;4.80;;;4.28;;
635;SDS011;302;50.206;8.196;2023-04-24T05:53:31;4.43;;;4.13;;
635;SDS011;302;50.206;8.196;2023-04-24T05:55:56;5.50;;;5.00;;
635;SDS011;302;50.206;8.196;2023-04-24T05:58:22;4.67;;;4.27;;
635;SDS011;302;50.206;8.196;2023-04-24T06:00:47;4.77;;;4.37;;
635;SDS011;302;50.206;8.196;2023-04-24T06:03:12;6.53;;;4.97;;
635;SDS011;302;50.206;8.196;2023-04-24T06:05:38;5.60;;;5.10;;
635;SDS011;302;50.206;8.196;2023-04-24T06:08:03;6.17;;;5.57;;
635;SDS011;302;50.206;8.196;2023-04-24T06:10:28;5.93;;;5.43;;
635;SDS011;302;50.206;8.196;2023-04-24T06:12:53;6.47;;;5.13;;
635;SDS011;302;50.206;8.196;2023-04-24T06:15:21;7.75;;;5.53;;
635;SDS011;302;50.206;8.196;2023-04-24T06:17:46;5.40;;;4.90;;
635;SDS011;302;50.206;8.196;2023-04-24T06:20:11;6.80;;;6.20;;
635;SDS011;302;50.206;8.196;2023-04-24T06:22:36;7.10;;;5.63;;
635;SDS011;302;50.206;8.196;2023-04-24T06:25:02;6.70;;;5.20;;
635;SDS011;302;50.206;8.196;2023-04-24T06:27:27;6.17;;;5.57;;
635;SDS011;302;50.206;8.196;2023-04-24T06:29:52;5.20;;;4.77;;
635;SDS011;302;50.206;8.196;2023-04-24T06:32:21;5.80;;;5.32;;
635;SDS011;302;50.206;8.196;2023-04-24T06:34:46;5.90;;;5.40;;
635;SDS011;302;50.206;8.196;2023-04-24T06:37:11;5.90;;;5.40;;
635;SDS011;302;50.206;8.196;2023-04-24T06:39:36;6.67;;;6.07;;
635;SDS011;302;50.206;8.196;2023-04-24T06:42:01;5.40;;;4.97;;
635;SDS011;302;50.206;8.196;2023-04-24T06:44:27;6.37;;;5.77;;
635;SDS011;302;50.206;8.196;2023-04-24T06:46:52;5.68;;;5.20;;
635;SDS011;302;50.206;8.196;2023-04-24T06:49:17;5.60;;;5.10;;
635;SDS011;302;50.206;8.196;2023-04-24T06:51:42;5.95;;;5.45;;
635;SDS011;302;50.206;8.196;2023-04-24T06:54:07;5.50;;;5.10;;
635;SDS011;302;50.206;8.196;2023-04-24T06:56:33;5.70;;;5.20;;
635;SDS011;302;50.206;8.196;2023-04-24T06:58:59;5.32;;;4.63;;
635;SDS011;302;50.206;8.196;2023-04-24T07:01:24;7.28;;;6.78;;
635;SDS011;302;50.206;8.196;2023-04-24T07:03:49;4.53;;;4.23;;
635;SDS011;302;50.206;8.196;2023-04-24T07:06:15;6.53;;;5.03;;
635;SDS011;302;50.206;8.196;2023-04-24T07:08:43;4.45;;;4.10;;
635;SDS011;302;50.206;8.196;2023-04-24T07:11:08;4.50;;;4.10;;
635;SDS011;302;50.206;8.196;2023-04-24T07:13:34;4.97;;;4.47;;
635;SDS011;302;50.206;8.196;2023-04-24T07:16:00;6.20;;;4.78;;
635;SDS011;302;50.206;8.196;2023-04-24T07:18:25;4.73;;;4.43;;
635;SDS011;302;50.206;8.196;2023-04-24T07:20:50;4.57;;;4.17;;
635;SDS011;302;50.206;8.196;2023-04-24T07:23:16;4.23;;;3.93;;
635;SDS011;302;50.206;8.196;2023-04-24T07:25:41;4.23;;;3.93;;
635;SDS011;302;50.206;8.196;2023-04-24T07:28:07;4.50;;;4.10;;
635;SDS011;302;50.206;8.196;2023-04-24T07:30:32;4.43;;;3.70;;
635;SDS011;302;50.206;8.196;2023-04-24T07:32:58;3.70;;;3.40;;
635;SDS011;302;50.206;8.196;2023-04-24T07:35:23;3.90;;;3.50;;
635;SDS011;302;50.206;8.196;2023-04-24T07:37:50;3.90;;;3.50;;
635;SDS011;302;50.206;8.196;2023-04-24T07:40:15;4.70;;;4.30;;
635;SDS011;302;50.206;8.196;2023-04-24T07:42:40;4.40;;;4.00;;
635;SDS011;302;50.206;8.196;2023-04-24T07:45:06;3.90;;;3.60;;
635;SDS011;302;50.206;8.196;2023-04-24T07:47:31;4.00;;;3.70;;
635;SDS011;302;50.206;8.196;2023-04-24T07:49:57;3.87;;;3.57;;
635;SDS011;302;50.206;8.196;2023-04-24T07:52:22;4.00;;;3.60;;
635;SDS011;302;50.206;8.196;2023-04-24T07:54:48;3.50;;;3.20;;
635;SDS011;302;50.206;8.196;2023-04-24T07:57:14;3.70;;;3.40;;
635;SDS011;302;50.206;8.196;2023-04-24T07:59:39;3.28;;;3.05;;
635;SDS011;302;50.206;8.196;2023-04-24T08:02:04;3.27;;;3.07;;
635;SDS011;302;50.206;8.196;2023-04-24T08:04:31;3.45;;;3.15;;
635;SDS011;302;50.206;8.196;2023-04-24T08:06:56;3.20;;;2.90;;
635;SDS011;302;50.206;8.196;2023-04-24T08:09:21;3.20;;;2.90;;
635;SDS011;302;50.206;8.196;2023-04-24T08:11:46;3.42;;;3.13;;
635;SDS011;302;50.206;8.196;2023-04-24T08:14:11;3.50;;;3.20;;
635;SDS011;302;50.206;8.196;2023-04-24T08:16:38;3.53;;;3.22;;
635;SDS011;302;50.206;8.196;2023-04-24T08:19:03;3.63;;;3.30;;
635;SDS011;302;50.206;8.196;2023-04-24T08:21:28;3.53;;;3.23;;
635;SDS011;302;50.206;8.196;2023-04-24T08:23:53;3.33;;;3.10;;
635;SDS011;302;50.206;8.196;2023-04-24T08:26:18;3.70;;;3.40;;
635;SDS011;302;50.206;8.196;2023-04-24T08:28:44;3.53;;;3.23;;
635;SDS011;302;50.206;8.196;2023-04-24T08:31:09;3.50;;;3.20;;
635;SDS011;302;50.206;8.196;2023-04-24T08:33:35;3.67;;;3.37;;
635;SDS011;302;50.206;8.196;2023-04-24T08:36:01;3.00;;;2.80;;
635;SDS011;302;50.206;8.196;2023-04-24T08:38:27;3.35;;;3.05;;
635;SDS011;302;50.206;8.196;2023-04-24T08:40:52;3.23;;;2.90;;
635;SDS011;302;50.206;8.196;2023-04-24T08:43:17;2.92;;;2.72;;
635;SDS011;302;50.206;8.196;2023-04-24T08:45:43;3.10;;;2.50;;
635;SDS011;302;50.206;8.196;2023-04-24T08:48:08;2.47;;;2.23;;
635;SDS011;302;50.206;8.196;2023-04-24T08:50:34;2.90;;;2.70;;
635;SDS011;302;50.206;8.196;2023-04-24T08:53:00;2.80;;;2.60;;
635;SDS011;302;50.206;8.196;2023-04-24T08:55:25;2.72;;;2.35;;
635;SDS011;302;50.206;8.196;2023-04-24T08:57:51;1.87;;;1.77;;
635;SDS011;302;50.206;8.196;2023-04-24T09:00:18;2.30;;;2.10;;
635;SDS011;302;50.206;8.196;2023-04-24T09:02:43;2.35;;;2.15;;
635;SDS011;302;50.206;8.196;2023-04-24T09:05:10;2.40;;;2.20;;
635;SDS011;302;50.206;8.196;2023-04-24T09:07:35;2.90;;;2.60;;
635;SDS011;302;50.206;8.196;2023-04-24T09:10:04;2.50;;;2.30;;
635;SDS011;302;50.206;8.196;2023-04-24T09:12:29;3.50;;;3.20;;
635;SDS011;302;50.206;8.196;2023-04-24T09:14:54;5.00;;;4.57;;
635;SDS011;302;50.206;8.196;2023-04-24T09:17:20;3.27;;;2.67;;
635;SDS011;302;50.206;8.196;2023-04-24T09:19:45;2.90;;;2.67;;
635;SDS011;302;50.206;8.196;2023-04-24T09:22:10;2.80;;;2.60;;
635;SDS011;302;50.206;8.196;2023-04-24T09:24:36;2.50;;;2.30;;
635;SDS011;302;50.206;8.196;2023-04-24T09:27:01;2.37;;;2.13;;
635;SDS011;302;50.206;8.196;2023-04-24T09:29:26;2.97;;;2.33;;
635;SDS011;302;50.206;8.196;2023-04-24T09:31:52;2.40;;;2.20;;
635;SDS011;302;50.206;8.196;2023-04-24T09:34:24;2.10;;;1.90;;
635;SDS011;302;50.206;8.196;2023-04-24T09:36:50;2.20;;;2.10;;
635;SDS011;302;50.206;8.196;2023-04-24T09:39:15;2.13;;;1.93;;
635;SDS011;302;50.206;8.196;2023-04-24T09:41:44;2.58;;;2.38;;
635;SDS011;302;50.206;8.196;2023-04-24T09:44:14;2.10;;;1.92;;
635;SDS011;302;50.206;8.196;2023-04-24T09:46:40;3.03;;;2.10;;
635;SDS011;302;50.206;8.196;2023-04-24T09:49:10;2.10;;;2.00;;
635;SDS011;302;50.206;8.196;2023-04-24T09:51:36;2.20;;;2.00;;
635;SDS011;302;50.206;8.196;2023-04-24T09:54:02;2.35;;;1.88;;
635;SDS011;302;50.206;8.196;2023-04-24T09:56:28;2.25;;;1.85;;
635;SDS011;302;50.206;8.196;2023-04-24T09:59:03;1.85;;;1.75;;
635;SDS011;302;50.206;8.196;2023-04-24T10:01:30;7.53;;;6.20;;
635;SDS011;302;50.206;8.196;2023-04-24T10:03:55;2.80;;;2.60;;
635;SDS011;302;50.206;8.196;2023-04-24T10:06:20;1.90;;;1.80;;
635;SDS011;302;50.206;8.196;2023-04-24T10:08:45;1.83;;;1.73;;
635;SDS011;302;50.206;8.196;2023-04-24T10:11:11;2.90;;;2.70;;
635;SDS011;302;50.206;8.196;2023-04-24T10:13:36;1.70;;;1.60;;
635;SDS011;302;50.206;8.196;2023-04-24T10:16:01;1.83;;;1.53;;
635;SDS011;302;50.206;8.196;2023-04-24T10:18:28;1.23;;;1.13;;
635;SDS011;302;50.206;8.196;2023-04-24T10:20:54;2.75;;;2.55;;
635;SDS011;302;50.206;8.196;2023-04-24T10:23:20;1.73;;;1.30;;
635;SDS011;302;50.206;8.196;2023-04-24T10:25:45;2.50;;;2.27;;
635;SDS011;302;50.206;8.196;2023-04-24T10:28:11;1.87;;;1.73;;
635;SDS011;302;50.206;8.196;2023-04-24T10:30:37;4.23;;;3.93;;
635;SDS011;302;50.206;8.196;2023-04-24T10:33:06;2.70;;;2.50;;
635;SDS011;302;50.206;8.196;2023-04-24T10:35:32;2.83;;;1.80;;
635;SDS011;302;50.206;8.196;2023-04-24T10:38:01;2.50;;;2.35;;
635;SDS011;302;50.206;8.196;2023-04-24T10:40:27;3.35;;;3.05;;
635;SDS011;302;50.206;8.196;2023-04-24T10:42:54;1.83;;;1.73;;
635;SDS011;302;50.206;8.196;2023-04-24T10:45:21;3.70;;;3.40;;
635;SDS011;302;50.206;8.196;2023-04-24T10:48:06;3.00;;;2.80;;
635;SDS011;302;50.206;8.196;2023-04-24T10:50:42;2.30;;;2.10;;
635;SDS011;302;50.206;8.196;2023-04-24T10:53:12;2.63;;;2.42;;
635;SDS011;302;50.206;8.196;2023-04-24T10:55:44;2.33;;;2.10;;
635;SDS011;302;50.206;8.196;2023-04-24T10:58:10;2.40;;;2.20;;
635;SDS011;302;50.206;8.196;2023-04-24T11:00:37;2.60;;;2.40;;
635;SDS011;302;50.206;8.196;2023-04-24T11:03:04;2.10;;;2.00;;
635;SDS011;302;50.206;8.196;2023-04-24T11:08:14;2.90;;;2.42;;
635;SDS011;302;50.206;8.196;2023-04-24T11:10:44;2.08;;;1.95;;
635;SDS011;302;50.206;8.196;2023-04-24T11:13:09;2.05;;;1.85;;
635;SDS011;302;50.206;8.196;2023-04-24T11:15:34;2.40;;;2.20;;
635;SDS011;302;50.206;8.196;2023-04-24T11:18:00;2.60;;;2.40;;
635;SDS011;302;50.206;8.196;2023-04-24T11:20:25;2.43;;;2.23;;
635;SDS011;302;50.206;8.196;2023-04-24T11:22:52;2.38;;;2.17;;
635;SDS011;302;50.206;8.196;2023-04-24T11:25:17;2.25;;;2.05;;
635;SDS011;302;50.206;8.196;2023-04-24T11:27:43;3.17;;;2.87;;
635;SDS011;302;50.206;8.196;2023-04-24T11:30:09;2.65;;;2.45;;
635;SDS011;302;50.206;8.196;2023-04-24T11:32:36;2.95;;;2.75;;
635;SDS011;302;50.206;8.196;2023-04-24T11:37:34;3.30;;;3.00;;
635;SDS011;302;50.206;8.196;2023-04-24T11:40:00;4.28;;;3.88;;
635;SDS011;302;50.206;8.196;2023-04-24T11:42:25;4.00;;;3.70;;
635;SDS011;302;50.206;8.196;2023-04-24T11:44:53;4.67;;;4.37;;
635;SDS011;302;50.206;8.196;2023-04-24T11:47:20;5.82;;;5.40;;
635;SDS011;302;50.206;8.196;2023-04-24T11:49:52;3.92;;;3.63;;
635;SDS011;302;50.206;8.196;2023-04-24T11:52:17;4.20;;;3.80;;
635;SDS011;302;50.206;8.196;2023-04-24T11:54:49;5.00;;;4.60;;
635;SDS011;302;50.206;8.196;2023-04-24T11:57:15;5.10;;;4.50;;
635;SDS011;302;50.206;8.196;2023-04-24T11:59:40;5.37;;;4.87;;
635;SDS011;302;50.206;8.196;2023-04-24T12:02:05;3.80;;;3.20;;
635;SDS011;302;50.206;8.196;2023-04-24T12:04:38;3.60;;;3.30;;
635;SDS011;302;50.206;8.196;2023-04-24T12:07:03;3.80;;;3.50;;
635;SDS011;302;50.206;8.196;2023-04-24T12:09:55;3.70;;;3.40;;
635;SDS011;302;50.206;8.196;2023-04-24T12:12:16;6.43;;;5.75;;
635;SDS011;302;50.206;8.196;2023-04-24T12:14:42;4.60;;;4.28;;
635;SDS011;302;50.206;8.196;2023-04-24T12:17:07;4.78;;;4.32;;
635;SDS011;302;50.206;8.196;2023-04-24T12:19:32;5.20;;;4.70;;
635;SDS011;302;50.206;8.196;2023-04-24T12:22:01;4.10;;;3.75;;
635;SDS011;302;50.206;8.196;2023-04-24T12:24:27;5.85;;;5.18;;
635;SDS011;302;50.206;8.196;2023-04-24T12:26:52;4.73;;;4.30;;
635;SDS011;302;50.206;8.196;2023-04-24T12:29:21;5.15;;;4.40;;
635;SDS011;302;50.206;8.196;2023-04-24T12:31:46;4.45;;;4.05;;
635;SDS011;302;50.206;8.196;2023-04-24T12:34:18;6.53;;;5.80;;
635;SDS011;302;50.206;8.196;2023-04-24T12:36:43;4.55;;;4.15;;
635;SDS011;302;50.206;8.196;2023-04-24T12:39:14;4.50;;;4.10;;
635;SDS011;302;50.206;8.196;2023-04-24T12:41:48;5.03;;;4.25;;
635;SDS011;302;50.206;8.196;2023-04-24T12:44:14;4.43;;;4.03;;
635;SDS011;302;50.206;8.196;2023-04-24T12:46:40;4.50;;;4.03;;
635;SDS011;302;50.206;8.196;2023-04-24T12:49:05;3.50;;;3.28;;
635;SDS011;302;50.206;8.196;2023-04-24T12:51:30;4.53;;;4.10;;
635;SDS011;302;50.206;8.196;2023-04-24T12:53:55;5.65;;;3.70;;
635;SDS011;302;50.206;8.196;2023-04-24T12:56:21;3.97;;;3.67;;
635;SDS011;302;50.206;8.196;2023-04-24T12:58:47;4.53;;;4.00;;
635;SDS011;302;50.206;8.196;2023-04-24T13:01:12;3.83;;;3.40;;
635;SDS011;302;50.206;8.196;2023-04-24T13:03:37;3.50;;;3.20;;
635;SDS011;302;50.206;8.196;2023-04-24T13:06:02;4.30;;;3.90;;
635;SDS011;302;50.206;8.196;2023-04-24T13:08:27;4.20;;;3.90;;
635;SDS011;302;50.206;8.196;2023-04-24T13:10:52;4.45;;;3.72;;
635;SDS011;302;50.206;8.196;2023-04-24T13:13:18;4.30;;;3.90;;
635;SDS011;302;50.206;8.196;2023-04-24T13:15:44;5.43;;;4.40;;
635;SDS011;302;50.206;8.196;2023-04-24T13:18:09;4.20;;;3.90;;
635;SDS011;302;50.206;8.196;2023-04-24T13:20:34;5.10;;;4.40;;
635;SDS011;302;50.206;8.196;2023-04-24T13:23:00;5.17;;;4.77;;
635;SDS011;302;50.206;8.196;2023-04-24T13:25:25;4.97;;;4.50;;
635;SDS011;302;50.206;8.196;2023-04-24T13:27:51;6.37;;;5.77;;
635;SDS011;302;50.206;8.196;2023-04-24T13:30:16;6.80;;;3.87;;
635;SDS011;302;50.206;8.196;2023-04-24T13:32:41;4.87;;;4.47;;
635;SDS011;302;50.206;8.196;2023-04-24T13:35:07;5.28;;;4.78;;
635;SDS011;302;50.206;8.196;2023-04-24T13:37:32;5.40;;;4.90;;
635;SDS011;302;50.206;8.196;2023-04-24T13:39:57;5.20;;;4.73;;
635;SDS011;302;50.206;8.196;2023-04-24T13:42:22;5.60;;;5.20;;
635;SDS011;302;50.206;8.196;2023-04-24T13:44:47;4.68;;;4.22;;
635;SDS011;302;50.206;8.196;2023-04-24T13:47:12;3.73;;;3.27;;
635;SDS011;302;50.206;8.196;2023-04-24T13:49:38;3.63;;;3.33;;
635;SDS011;302;50.206;8.196;2023-04-24T13:52:03;3.60;;;3.30;;
635;SDS011;302;50.206;8.196;2023-04-24T13:54:28;4.13;;;3.80;;
635;SDS011;302;50.206;8.196;2023-04-24T13:56:55;4.20;;;3.72;;
635;SDS011;302;50.206;8.196;2023-04-24T13:59:21;10.00;;;5.20;;
635;SDS011;302;50.206;8.196;2023-04-24T14:01:46;4.80;;;4.43;;
635;SDS011;302;50.206;8.196;2023-04-24T14:04:12;4.63;;;4.10;;
635;SDS011;302;50.206;8.196;2023-04-24T14:06:37;5.00;;;4.60;;
635;SDS011;302;50.206;8.196;2023-04-24T14:09:02;5.20;;;4.30;;
635;SDS011;302;50.206;8.196;2023-04-24T14:11:27;6.00;;;5.50;;
635;SDS011;302;50.206;8.196;2023-04-24T14:13:53;5.10;;;4.37;;
635;SDS011;302;50.206;8.196;2023-04-24T14:16:19;5.07;;;4.68;;
635;SDS011;302;50.206;8.196;2023-04-24T14:18:44;7.17;;;5.47;;
635;SDS011;302;50.206;8.196;2023-04-24T14:21:09;7.77;;;5.80;;
635;SDS011;302;50.206;8.196;2023-04-24T14:23:35;16.27;;;11.47;;
635;SDS011;302;50.206;8.196;2023-04-24T14:26:00;13.88;;;8.68;;
635;SDS011;302;50.206;8.196;2023-04-24T14:28:25;20.63;;;13.73;;
635;SDS011;302;50.206;8.196;2023-04-24T14:30:51;5.10;;;4.60;;
635;SDS011;302;50.206;8.196;2023-04-24T14:33:16;4.40;;;4.10;;
635;SDS011;302;50.206;8.196;2023-04-24T14:35:42;5.00;;;4.60;;
635;SDS011;302;50.206;8.196;2023-04-24T14:38:07;8.00;;;7.30;;
635;SDS011;302;50.206;8.196;2023-04-24T14:40:33;4.43;;;4.03;;
635;SDS011;302;50.206;8.196;2023-04-24T14:42:58;4.27;;;3.97;;
635;SDS011;302;50.206;8.196;2023-04-24T14:45:26;5.47;;;4.97;;
635;SDS011;302;50.206;8.196;2023-04-24T14:47:52;5.20;;;4.70;;
635;SDS011;302;50.206;8.196;2023-04-24T14:50:17;4.60;;;4.20;;
635;SDS011;302;50.206;8.196;2023-04-24T14:52:43;4.07;;;3.67;;
635;SDS011;302;50.206;8.196;2023-04-24T14:55:08;5.07;;;4.07;;
635;SDS011;302;50.206;8.196;2023-04-24T14:57:33;4.33;;;3.90;;
635;SDS011;302;50.206;8.196;2023-04-24T14:59:59;3.67;;;3.37;;
635;SDS011;302;50.206;8.196;2023-04-24T15:02:24;3.93;;;3.63;;
635;SDS011;302;50.206;8.196;2023-04-24T15:04:49;3.87;;;3.57;;
635;SDS011;302;50.206;8.196;2023-04-24T15:07:14;4.00;;;3.70;;
635;SDS011;302;50.206;8.196;2023-04-24T15:09:40;6.67;;;3.97;;
635;SDS011;302;50.206;8.196;2023-04-24T15:12:05;3.67;;;3.37;;
635;SDS011;302;50.206;8.196;2023-04-24T15:14:30;6.20;;;5.70;;
635;SDS011;302;50.206;8.196;2023-04-24T15:16:55;4.30;;;3.93;;
635;SDS011;302;50.206;8.196;2023-04-24T15:19:20;4.70;;;4.17;;
635;SDS011;302;50.206;8.196;2023-04-24T15:21:46;5.10;;;4.60;;
635;SDS011;302;50.206;8.196;2023-04-24T15:24:11;4.60;;;4.20;;
635;SDS011;302;50.206;8.196;2023-04-24T15:26:36;6.00;;;5.50;;
635;SDS011;302;50.206;8.196;2023-04-24T15:29:01;4.70;;;4.32;;
635;SDS011;302;50.206;8.196;2023-04-24T15:31:26;5.60;;;5.10;;
635;SDS011;302;50.206;8.196;2023-04-24T15:33:52;6.10;;;5.60;;
635;SDS011;302;50.206;8.196;2023-04-24T15:36:17;4.40;;;4.00;;
635;SDS011;302;50.206;8.196;2023-04-24T15:38:43;4.10;;;3.70;;
635;SDS011;302;50.206;8.196;2023-04-24T15:41:09;5.07;;;3.80;;